Time;durP1;ratioP1;P1;durP2;ratioP2;P2;SDS_P1;SDS_P2;PMS_P1;PMS_P2;Temp;Humidity;BMP_temperature;BMP_pressure;BME280_temperature;BME280_humidity;BME280_pressure;Samples;Min_cycle;Max_cycle;Signal;HPM_P1;HPM_P2
2023/08/06 00:00:04;;;;;;;5.47;5.07;;;15.60;99.90;;;;;;5032092;28;20178;-72
2023/08/06 00:02:30;;;;;;;7.07;5.00;;;15.50;99.90;;;;;;5030654;28;20175;-72
2023/08/06 00:04:56;;;;;;;5.87;5.27;;;15.50;99.90;;;;;;5016827;28;20211;-72
2023/08/06 00:07:21;;;;;;;6.00;4.17;;;15.50;99.90;;;;;;5012379;28;20204;-72
2023/08/06 00:09:47;;;;;;;7.27;5.27;;;15.50;99.90;;;;;;5012594;28;20668;-72
2023/08/06 00:12:12;;;;;;;5.60;5.20;;;15.50;99.90;;;;;;5011794;28;20545;-72
2023/08/06 00:14:38;;;;;;;4.90;4.50;;;15.50;99.90;;;;;;5024427;28;20294;-72
2023/08/06 00:17:04;;;;;;;5.80;5.30;;;15.40;99.90;;;;;;5031668;28;20199;-72
2023/08/06 00:19:31;;;;;;;5.67;5.17;;;15.40;99.90;;;;;;5031946;28;20225;-73
2023/08/06 00:21:56;;;;;;;5.50;4.87;;;15.30;99.90;;;;;;5030293;28;20285;-72
2023/08/06 00:24:22;;;;;;;5.60;4.80;;;15.30;99.90;;;;;;5021340;28;20340;-72
2023/08/06 00:26:48;;;;;;;5.10;4.70;;;15.30;99.90;;;;;;5011951;28;20443;-72
2023/08/06 00:29:13;;;;;;;5.13;4.63;;;15.20;99.90;;;;;;5012254;28;20203;-72
2023/08/06 00:31:39;;;;;;;5.67;5.17;;;15.20;99.90;;;;;;5011587;28;20230;-72
2023/08/06 00:34:04;;;;;;;5.37;4.97;;;15.10;99.90;;;;;;5018360;28;20203;-72
2023/08/06 00:36:30;;;;;;;5.83;5.30;;;15.00;99.90;;;;;;5030682;28;20195;-72
2023/08/06 00:38:56;;;;;;;6.70;5.70;;;15.00;99.90;;;;;;5031672;28;20290;-73
2023/08/06 00:41:21;;;;;;;6.20;5.13;;;15.00;99.90;;;;;;5031366;28;20183;-73
2023/08/06 00:43:47;;;;;;;6.00;5.43;;;15.00;99.90;;;;;;5026460;28;20184;-73
2023/08/06 00:46:13;;;;;;;6.47;5.87;;;15.10;99.90;;;;;;5011421;28;20207;-73
2023/08/06 00:48:40;;;;;;;9.37;6.00;;;15.10;99.90;;;;;;5011847;28;20591;-73
2023/08/06 00:51:06;;;;;;;10.07;5.80;;;15.10;99.90;;;;;;5011745;28;20551;-73
2023/08/06 00:53:32;;;;;;;5.40;5.00;;;15.20;99.90;;;;;;5013761;28;20302;-72
2023/08/06 00:55:58;;;;;;;5.90;5.27;;;15.10;99.90;;;;;;5031471;28;20560;-73
2023/08/06 00:58:24;;;;;;;5.30;4.80;;;15.20;99.90;;;;;;5031341;28;20547;-73
2023/08/06 01:00:50;;;;;;;5.70;5.20;;;15.20;99.90;;;;;;5031696;28;20230;-73
2023/08/06 01:03:16;;;;;;;5.50;5.00;;;15.10;99.90;;;;;;5017026;28;20204;-73
2023/08/06 01:05:42;;;;;;;6.83;5.70;;;15.10;99.90;;;;;;5011472;28;20558;-73
2023/08/06 01:08:26;;;;;;;5.93;5.20;;;15.20;99.90;;;;;;5011410;28;20544;-73
2023/08/06 01:11:07;;;;;;;6.50;5.90;;;15.20;99.90;;;;;;5011609;28;20191;-72
2023/08/06 01:13:49;;;;;;;7.10;6.40;;;15.20;99.90;;;;;;5027139;28;20286;-72
2023/08/06 01:16:20;;;;;;;7.80;5.57;;;15.20;99.90;;;;;;5031056;28;20571;-72
2023/08/06 01:18:49;;;;;;;6.43;5.53;;;15.20;99.90;;;;;;5029669;28;20183;-72
2023/08/06 01:21:15;;;;;;;6.53;4.70;;;15.20;99.90;;;;;;5030997;28;20226;-72
2023/08/06 01:23:42;;;;;;;8.27;5.40;;;15.20;99.90;;;;;;5014542;28;20184;-72
2023/08/06 01:26:23;;;;;;;6.47;5.23;;;15.20;99.90;;;;;;5011166;28;20498;-72
2023/08/06 01:29:13;;;;;;;5.47;5.03;;;15.20;99.90;;;;;;5012532;28;20668;-72
2023/08/06 01:31:41;;;;;;;7.57;5.53;;;15.10;99.90;;;;;;5011277;28;20181;-72
2023/08/06 01:34:20;;;;;;;5.27;4.77;;;15.10;99.90;;;;;;5011140;28;20214;-72
2023/08/06 01:36:46;;;;;;;5.90;5.30;;;15.10;99.90;;;;;;5011429;28;20202;-72
2023/08/06 01:39:12;;;;;;;6.53;5.80;;;15.10;99.90;;;;;;5018939;28;20230;-72
2023/08/06 01:41:37;;;;;;;6.60;5.47;;;15.10;99.90;;;;;;5030908;28;20168;-72
2023/08/06 01:44:03;;;;;;;5.17;4.67;;;15.00;99.90;;;;;;5031119;28;20629;-72
2023/08/06 01:46:29;;;;;;;5.57;5.07;;;15.00;99.90;;;;;;5034919;28;20453;-72
2023/08/06 01:48:54;;;;;;;5.33;4.83;;;15.00;99.90;;;;;;5019808;28;20227;-72
2023/08/06 01:51:20;;;;;;;6.20;5.20;;;15.00;99.90;;;;;;5014737;28;20658;-72
2023/08/06 01:53:45;;;;;;;5.03;4.63;;;15.00;99.90;;;;;;5014745;28;20215;-72
2023/08/06 01:56:11;;;;;;;5.80;5.30;;;15.00;99.90;;;;;;5020270;28;20687;-72
2023/08/06 01:58:37;;;;;;;6.87;5.27;;;14.90;99.90;;;;;;5034547;28;20175;-72
2023/08/06 02:01:02;;;;;;;5.57;5.07;;;14.90;99.90;;;;;;5034572;28;20256;-72
2023/08/06 02:03:28;;;;;;;6.17;5.10;;;14.90;99.90;;;;;;5034124;28;20183;-72
2023/08/06 02:05:54;;;;;;;5.97;5.00;;;14.90;99.90;;;;;;5030655;28;20548;-72
2023/08/06 02:08:19;;;;;;;5.23;4.70;;;14.90;99.90;;;;;;5014313;28;20188;-72
2023/08/06 02:10:45;;;;;;;9.13;5.50;;;14.90;99.90;;;;;;5014688;28;20328;-73
2023/08/06 02:13:11;;;;;;;7.47;4.77;;;14.90;99.90;;;;;;5016105;28;20442;-72
2023/08/06 02:15:47;;;;;;;4.77;4.37;;;14.90;99.90;;;;;;5033360;28;20176;-72
2023/08/06 02:18:14;;;;;;;7.93;4.80;;;14.90;99.90;;;;;;5033966;28;20167;-73
2023/08/06 02:20:40;;;;;;;6.87;4.30;;;14.90;99.90;;;;;;5033409;28;20171;-72
2023/08/06 02:23:06;;;;;;;8.37;4.30;;;14.90;99.90;;;;;;5030403;28;20182;-72
2023/08/06 02:25:32;;;;;;;5.37;4.60;;;14.90;99.90;;;;;;5033388;28;20180;-72
2023/08/06 02:27:57;;;;;;;4.50;4.20;;;14.90;99.90;;;;;;5033855;28;20587;-73
2023/08/06 02:30:23;;;;;;;5.63;4.97;;;14.90;99.90;;;;;;5033737;28;20180;-73
2023/08/06 02:32:49;;;;;;;4.93;4.53;;;14.80;99.90;;;;;;5033951;28;20264;-72
2023/08/06 02:35:15;;;;;;;4.97;4.57;;;14.80;99.90;;;;;;5014921;28;20211;-72
2023/08/06 02:37:40;;;;;;;4.93;4.40;;;14.70;99.90;;;;;;5013626;28;20541;-72
2023/08/06 02:40:06;;;;;;;5.13;4.73;;;14.70;99.90;;;;;;5013726;28;20183;-72
2023/08/06 02:42:32;;;;;;;9.30;4.90;;;14.80;99.90;;;;;;5013518;28;20180;-73
2023/08/06 02:44:58;;;;;;;5.00;4.60;;;14.80;99.90;;;;;;5028732;28;20187;-73
2023/08/06 02:47:23;;;;;;;6.00;4.80;;;14.80;99.90;;;;;;5033927;28;20286;-72
2023/08/06 02:49:49;;;;;;;6.70;5.00;;;14.90;99.90;;;;;;5033494;28;20540;-72
2023/08/06 02:52:15;;;;;;;6.67;5.20;;;14.90;99.90;;;;;;5033047;28;20283;-72
2023/08/06 02:54:40;;;;;;;4.80;4.37;;;14.90;99.90;;;;;;5019972;28;20281;-72
2023/08/06 02:57:06;;;;;;;5.03;4.53;;;14.90;99.90;;;;;;5013148;28;20243;-72
2023/08/06 02:59:32;;;;;;;4.73;4.37;;;14.90;99.90;;;;;;5013746;28;20536;-72
2023/08/06 03:01:58;;;;;;;5.13;4.73;;;15.00;99.90;;;;;;5017882;28;20719;-72
2023/08/06 03:04:23;;;;;;;4.77;4.47;;;15.00;99.90;;;;;;5032931;28;20258;-73
2023/08/06 03:06:50;;;;;;;4.87;4.43;;;15.00;99.90;;;;;;5032924;28;20203;-72
2023/08/06 03:09:16;;;;;;;8.23;4.60;;;15.00;99.90;;;;;;5016010;28;20199;-72
2023/08/06 03:11:42;;;;;;;4.87;4.37;;;15.00;99.90;;;;;;5014786;28;20263;-72
2023/08/06 03:14:08;;;;;;;5.63;4.47;;;15.10;99.90;;;;;;5032756;28;20286;-72
2023/08/06 03:16:33;;;;;;;5.20;4.37;;;15.10;99.90;;;;;;5031867;28;20199;-72
2023/08/06 03:18:59;;;;;;;7.87;4.77;;;15.10;99.90;;;;;;5031749;28;20652;-72
2023/08/06 03:21:25;;;;;;;4.70;4.33;;;15.10;99.90;;;;;;5032878;28;20172;-73
2023/08/06 03:23:50;;;;;;;5.00;4.47;;;15.20;99.90;;;;;;5013291;28;20192;-72
2023/08/06 03:26:16;;;;;;;5.17;4.67;;;15.20;99.90;;;;;;5012708;28;20200;-72
2023/08/06 03:28:42;;;;;;;5.03;4.10;;;15.20;99.90;;;;;;5117882;22;20223;-89
2023/08/06 03:31:07;;;;;;;4.80;4.40;;;15.20;99.90;;;;;;5043477;28;20713;-87
2023/08/06 03:33:33;;;;;;;4.53;4.13;;;15.20;99.90;;;;;;5028825;28;20227;-89
2023/08/06 03:35:59;;;;;;;6.83;4.97;;;15.10;99.90;;;;;;5031359;28;20820;-88
2023/08/06 03:38:25;;;;;;;5.03;4.57;;;15.10;99.90;;;;;;5027132;28;20588;-88
2023/08/06 03:40:50;;;;;;;4.57;4.17;;;15.10;99.90;;;;;;5024806;28;20176;-89
2023/08/06 03:43:16;;;;;;;4.63;4.23;;;15.10;99.90;;;;;;5012795;28;20184;-89
2023/08/06 03:45:43;;;;;;;4.20;3.90;;;15.10;99.90;;;;;;5012747;28;20172;-88
2023/08/06 03:48:09;;;;;;;8.17;4.60;;;15.10;99.90;;;;;;5013503;28;20192;-87
2023/08/06 03:50:35;;;;;;;6.97;4.57;;;15.10;99.90;;;;;;5012706;28;20176;-88
2023/08/06 03:53:01;;;;;;;5.83;4.23;;;15.10;99.90;;;;;;5012944;28;20172;-89
2023/08/06 03:55:27;;;;;;;6.10;4.50;;;15.10;99.90;;;;;;5012495;28;20642;-89
2023/08/06 03:57:53;;;;;;;5.97;4.50;;;15.10;99.90;;;;;;5012644;28;20228;-90
2023/08/06 04:00:19;;;;;;;4.93;4.50;;;15.10;99.90;;;;;;5012782;28;20191;-90
2023/08/06 04:02:44;;;;;;;6.07;4.67;;;15.00;99.90;;;;;;5012040;28;20172;-88
2023/08/06 04:05:11;;;;;;;5.83;4.60;;;15.00;99.90;;;;;;5013729;28;20180;-89
2023/08/06 04:07:37;;;;;;;5.60;4.23;;;15.00;99.90;;;;;;5011632;28;20207;-89
2023/08/06 04:10:04;;;;;;;5.13;4.10;;;15.10;99.90;;;;;;5011931;28;20180;-89
2023/08/06 04:12:30;;;;;;;4.50;4.20;;;15.00;99.90;;;;;;5011881;28;20372;-89
2023/08/06 04:14:58;;;;;;;7.37;4.63;;;15.10;99.90;;;;;;5012466;28;20717;-89
2023/08/06 04:17:23;;;;;;;4.47;3.97;;;15.10;99.90;;;;;;5027553;23;20203;-73
2023/08/06 04:19:50;;;;;;;5.43;5.00;;;15.10;99.90;;;;;;5010609;28;20196;-73
2023/08/06 04:22:16;;;;;;;6.37;4.63;;;15.10;99.90;;;;;;5011618;28;20180;-73
2023/08/06 04:24:43;;;;;;;5.07;4.67;;;15.10;99.90;;;;;;5012626;28;20179;-73
2023/08/06 04:27:09;;;;;;;5.43;4.37;;;15.10;99.90;;;;;;5012110;28;20192;-73
2023/08/06 04:29:35;;;;;;;7.10;4.80;;;15.10;99.90;;;;;;5012355;28;20622;-72
2023/08/06 04:32:02;;;;;;;6.13;4.43;;;15.10;99.90;;;;;;5289092;22;20999;-89
2023/08/06 04:34:28;;;;;;;5.43;4.90;;;15.10;99.90;;;;;;5035887;28;20220;-88
2023/08/06 04:36:54;;;;;;;5.13;4.67;;;15.10;99.90;;;;;;5055884;28;20183;-89
2023/08/06 04:39:23;;;;;;;5.57;5.10;;;15.10;99.90;;;;;;5054953;28;20190;-88
2023/08/06 04:41:49;;;;;;;8.23;5.23;;;15.10;99.90;;;;;;5036720;28;20232;-88
2023/08/06 04:44:14;;;;;;;8.60;5.60;;;15.20;99.90;;;;;;5037381;28;20187;-88
2023/08/06 04:46:40;;;;;;;7.13;5.23;;;15.20;99.90;;;;;;5034447;28;20173;-89
2023/08/06 04:49:08;;;;;;;10.37;5.93;;;15.30;99.90;;;;;;5051988;28;20242;-88
2023/08/06 04:51:34;;;;;;;6.47;5.63;;;15.30;99.90;;;;;;5056485;28;20187;-88
2023/08/06 04:54:01;;;;;;;9.17;6.10;;;15.30;99.90;;;;;;5056632;28;20278;-89
2023/08/06 04:56:27;;;;;;;7.03;6.03;;;15.30;99.90;;;;;;5056773;28;20175;-88
2023/08/06 05:01:20;;;;;;;8.47;6.40;;;15.30;99.90;;;;;;5029649;28;20705;-74
2023/08/06 05:03:47;;;;;;;7.90;6.40;;;15.40;99.90;;;;;;5031452;28;20178;-74
2023/08/06 05:06:13;;;;;;;6.70;6.10;;;15.50;99.90;;;;;;5031151;28;20168;-74
2023/08/06 05:08:38;;;;;;;6.37;5.77;;;15.50;99.90;;;;;;5031208;28;20271;-74
2023/08/06 05:11:04;;;;;;;7.03;5.93;;;15.50;99.90;;;;;;5031260;28;20664;-74
2023/08/06 05:13:29;;;;;;;6.57;5.83;;;15.50;99.90;;;;;;5031034;28;20215;-74
2023/08/06 05:15:55;;;;;;;6.73;6.03;;;15.60;99.90;;;;;;5031684;28;20182;-73
2023/08/06 05:18:21;;;;;;;6.10;5.60;;;15.60;99.90;;;;;;5031840;28;20171;-73
2023/08/06 05:20:46;;;;;;;6.43;5.83;;;15.60;99.90;;;;;;5035312;28;20194;-74
2023/08/06 05:23:12;;;;;;;10.47;6.27;;;15.60;99.90;;;;;;5034729;28;20171;-74
2023/08/06 05:25:38;;;;;;;6.07;5.47;;;15.60;99.90;;;;;;5035033;28;20660;-73
2023/08/06 05:28:04;;;;;;;6.57;5.77;;;15.60;99.90;;;;;;5035096;28;20168;-74
2023/08/06 05:30:30;;;;;;;6.43;5.63;;;15.70;99.90;;;;;;5034836;28;20168;-73
2023/08/06 05:32:55;;;;;;;6.30;5.80;;;15.60;99.90;;;;;;5034546;28;20195;-74
2023/08/06 05:35:22;;;;;;;6.87;6.27;;;15.60;99.90;;;;;;5034370;28;20660;-74
2023/08/06 05:37:48;;;;;;;8.43;5.80;;;15.60;99.90;;;;;;5035122;28;20182;-73
2023/08/06 05:40:14;;;;;;;6.40;5.70;;;15.60;99.90;;;;;;5034777;28;20174;-73
2023/08/06 05:42:40;;;;;;;6.07;5.47;;;15.70;99.90;;;;;;5034771;28;20563;-73
2023/08/06 05:45:07;;;;;;;7.77;5.70;;;15.70;99.90;;;;;;5034540;28;20583;-73
2023/08/06 05:47:33;;;;;;;11.70;6.37;;;15.80;99.90;;;;;;5034568;28;20176;-73
2023/08/06 05:49:58;;;;;;;7.73;6.20;;;15.70;99.90;;;;;;5034798;28;20194;-73
2023/08/06 05:52:24;;;;;;;7.27;6.00;;;15.60;99.90;;;;;;5034044;28;20198;-74
2023/08/06 05:54:49;;;;;;;7.30;5.80;;;15.70;99.90;;;;;;5034479;28;20203;-74
2023/08/06 05:57:15;;;;;;;7.27;5.90;;;15.70;99.90;;;;;;5034550;28;20178;-73
2023/08/06 05:59:41;;;;;;;6.10;5.50;;;15.80;99.90;;;;;;5033355;28;20230;-73
2023/08/06 06:02:07;;;;;;;7.53;5.83;;;15.80;99.90;;;;;;5032840;28;20191;-74
2023/08/06 06:04:32;;;;;;;7.73;6.93;;;15.80;99.90;;;;;;5034378;28;20168;-73
2023/08/06 06:06:58;;;;;;;8.30;6.73;;;15.90;99.90;;;;;;5034196;28;20269;-73
2023/08/06 06:09:24;;;;;;;7.30;6.60;;;16.00;99.90;;;;;;5034298;28;20555;-73
2023/08/06 06:11:50;;;;;;;8.17;6.43;;;16.10;99.90;;;;;;5034115;28;20606;-73
2023/08/06 06:14:19;;;;;;;7.80;6.17;;;16.20;99.90;;;;;;5034092;28;20199;-73
2023/08/06 06:16:45;;;;;;;7.00;6.30;;;16.20;99.90;;;;;;5034136;28;20206;-73
2023/08/06 06:19:11;;;;;;;6.73;6.13;;;16.30;99.90;;;;;;5034207;28;20515;-73
2023/08/06 06:21:38;;;;;;;6.80;6.13;;;16.30;99.90;;;;;;5033802;28;20188;-74
2023/08/06 06:24:04;;;;;;;6.67;6.07;;;16.40;99.90;;;;;;5033872;28;20175;-74
2023/08/06 06:26:31;;;;;;;7.37;6.77;;;16.50;99.90;;;;;;5030867;28;20656;-73
2023/08/06 06:28:56;;;;;;;7.43;6.07;;;16.60;99.90;;;;;;5033996;28;20206;-73
2023/08/06 06:31:22;;;;;;;6.50;5.90;;;16.80;99.90;;;;;;5032458;28;20223;-73
2023/08/06 06:33:47;;;;;;;6.23;5.53;;;16.90;99.90;;;;;;5033551;28;20203;-73
2023/08/06 06:36:13;;;;;;;6.17;5.67;;;16.90;99.90;;;;;;5033629;28;20179;-73
2023/08/06 06:38:39;;;;;;;6.53;5.93;;;17.00;99.90;;;;;;5032603;28;20182;-73
2023/08/06 06:41:05;;;;;;;7.53;5.50;;;17.10;99.90;;;;;;5033790;28;20218;-73
2023/08/06 06:43:30;;;;;;;5.47;5.03;;;17.20;99.90;;;;;;5033037;28;20183;-73
2023/08/06 06:46:00;;;;;;;6.23;5.17;;;17.20;99.90;;;;;;5033845;28;20182;-73
2023/08/06 06:48:28;;;;;;;6.33;5.13;;;17.30;99.90;;;;;;5033374;28;20182;-74
2023/08/06 06:50:54;;;;;;;5.60;5.20;;;17.40;99.90;;;;;;5032736;28;20271;-74
2023/08/06 06:53:20;;;;;;;4.70;4.40;;;17.40;99.90;;;;;;5032788;28;20712;-74
2023/08/06 06:55:48;;;;;;;5.30;4.90;;;17.50;99.90;;;;;;5033738;28;20543;-74
2023/08/06 06:58:16;;;;;;;5.43;4.70;;;17.40;99.90;;;;;;5033144;28;20653;-74
2023/08/06 07:00:41;;;;;;;5.57;5.07;;;17.50;99.90;;;;;;5033216;28;20399;-73
2023/08/06 07:03:07;;;;;;;5.17;4.63;;;17.50;99.90;;;;;;5032411;28;20274;-74
2023/08/06 07:05:33;;;;;;;5.63;4.63;;;17.50;99.90;;;;;;5032135;28;20167;-74
2023/08/06 07:07:58;;;;;;;5.10;4.60;;;17.40;99.90;;;;;;5032524;28;20171;-74
2023/08/06 07:10:24;;;;;;;4.30;3.97;;;17.40;99.90;;;;;;5032878;28;20254;-73
2023/08/06 07:12:49;;;;;;;4.60;4.20;;;17.30;99.90;;;;;;5032630;28;20206;-73
2023/08/06 07:15:17;;;;;;;3.73;3.43;;;17.30;99.90;;;;;;5032924;28;20203;-74
2023/08/06 07:17:43;;;;;;;3.33;3.13;;;17.30;99.90;;;;;;5033228;28;20175;-73
2023/08/06 07:20:09;;;;;;;3.50;3.30;;;17.30;99.90;;;;;;5032718;28;20171;-73
2023/08/06 07:22:34;;;;;;;3.40;3.20;;;17.20;99.90;;;;;;5032757;28;20266;-73
2023/08/06 07:25:00;;;;;;;3.10;2.90;;;17.10;99.90;;;;;;5032237;28;20183;-73
2023/08/06 07:27:25;;;;;;;3.30;3.10;;;16.90;99.90;;;;;;5032902;28;20183;-73
2023/08/06 07:29:51;;;;;;;2.90;2.80;;;16.80;99.90;;;;;;5031546;28;20172;-73
2023/08/06 07:32:16;;;;;;;2.97;2.80;;;16.70;99.90;;;;;;5031732;28;20203;-72
2023/08/06 07:34:42;;;;;;;3.30;3.10;;;16.70;99.90;;;;;;5032593;28;20217;-72
2023/08/06 07:37:08;;;;;;;3.03;2.90;;;16.90;99.90;;;;;;5032498;28;20168;-73
2023/08/06 07:39:33;;;;;;;3.30;3.10;;;17.10;99.90;;;;;;5032626;28;20255;-73
2023/08/06 07:41:59;;;;;;;3.17;2.97;;;17.20;99.90;;;;;;5030593;28;20343;-73
2023/08/06 07:44:25;;;;;;;3.90;3.60;;;17.20;99.90;;;;;;5032181;28;20176;-73
2023/08/06 07:46:50;;;;;;;4.00;3.77;;;17.30;99.90;;;;;;5031346;28;20187;-73
2023/08/06 07:49:16;;;;;;;3.50;3.30;;;17.20;99.90;;;;;;5032468;28;20167;-73
2023/08/06 07:51:41;;;;;;;3.83;3.50;;;17.30;99.90;;;;;;5030872;28;20683;-73
2023/08/06 07:54:07;;;;;;;3.70;3.50;;;17.40;99.90;;;;;;5030247;28;20238;-73
2023/08/06 07:56:33;;;;;;;3.50;3.30;;;17.50;99.90;;;;;;5032156;28;20171;-73
2023/08/06 07:58:58;;;;;;;3.67;3.47;;;17.40;99.90;;;;;;5032004;28;20171;-74
2023/08/06 08:01:24;;;;;;;3.20;3.10;;;17.40;99.90;;;;;;5031850;28;20195;-73
2023/08/06 08:03:50;;;;;;;3.67;3.37;;;17.60;99.90;;;;;;5032179;28;20176;-73
2023/08/06 08:06:15;;;;;;;3.03;2.83;;;17.60;99.90;;;;;;5031958;28;20178;-72
2023/08/06 08:08:41;;;;;;;3.00;2.80;;;17.60;99.90;;;;;;5031711;28;20706;-73
2023/08/06 08:11:07;;;;;;;3.07;2.97;;;17.50;99.90;;;;;;5031956;28;20664;-73
2023/08/06 08:13:34;;;;;;;3.60;3.40;;;17.50;99.90;;;;;;5030209;28;20229;-72
2023/08/06 08:16:01;;;;;;;3.20;3.00;;;17.40;99.90;;;;;;5031972;28;20697;-73
2023/08/06 08:18:27;;;;;;;3.03;2.90;;;17.40;99.90;;;;;;5031665;28;20167;-72
2023/08/06 08:20:52;;;;;;;2.80;2.70;;;17.50;99.90;;;;;;5031532;28;20164;-72
2023/08/06 08:23:18;;;;;;;2.80;2.70;;;17.50;99.90;;;;;;5030301;28;20190;-72
2023/08/06 08:25:44;;;;;;;3.03;2.83;;;17.70;99.90;;;;;;5030606;28;20191;-73
2023/08/06 08:28:09;;;;;;;3.30;3.10;;;17.90;99.90;;;;;;5029553;28;20262;-72
2023/08/06 08:30:35;;;;;;;3.27;3.07;;;17.90;99.90;;;;;;5030046;28;20190;-72
2023/08/06 08:33:00;;;;;;;3.13;2.93;;;17.90;99.90;;;;;;5030774;28;20199;-72
2023/08/06 08:35:26;;;;;;;3.70;3.50;;;17.80;99.90;;;;;;5031494;28;20304;-72
2023/08/06 08:37:51;;;;;;;3.67;3.47;;;17.80;99.90;;;;;;5031707;28;20163;-72
2023/08/06 08:40:17;;;;;;;3.93;3.63;;;17.70;99.90;;;;;;5031235;28;20221;-72
2023/08/06 08:42:43;;;;;;;4.27;3.87;;;17.60;99.90;;;;;;5031100;28;20672;-72
2023/08/06 08:45:14;;;;;;;5.07;4.67;;;17.50;99.90;;;;;;5031515;28;20213;-71
2023/08/06 08:47:43;;;;;;;5.07;4.77;;;17.30;99.90;;;;;;5028925;28;20187;-72
2023/08/06 08:50:11;;;;;;;6.37;5.87;;;17.40;99.90;;;;;;5031129;28;20652;-72
2023/08/06 08:52:40;;;;;;;7.00;6.40;;;17.50;99.90;;;;;;5030653;28;20699;-72
2023/08/06 08:55:07;;;;;;;7.70;6.93;;;17.80;99.90;;;;;;5030830;28;20213;-72
2023/08/06 08:57:33;;;;;;;6.70;6.20;;;18.00;99.90;;;;;;5031380;28;20170;-72
2023/08/06 08:59:59;;;;;;;7.23;6.63;;;18.20;99.90;;;;;;5031020;28;20552;-72
2023/08/06 09:02:28;;;;;;;6.77;6.10;;;18.40;99.90;;;;;;5029025;28;20203;-72
2023/08/06 09:04:57;;;;;;;5.83;5.33;;;18.50;99.90;;;;;;5031218;28;20178;-72
2023/08/06 09:07:24;;;;;;;5.90;5.50;;;18.60;99.90;;;;;;5030919;28;20688;-72
2023/08/06 09:09:52;;;;;;;5.47;4.97;;;18.80;99.90;;;;;;5031449;28;20544;-72
2023/08/06 09:12:17;;;;;;;5.30;4.90;;;18.90;99.90;;;;;;5030639;28;20215;-73
2023/08/06 09:14:43;;;;;;;4.57;4.23;;;19.10;99.90;;;;;;5030851;28;20231;-72
2023/08/06 09:17:13;;;;;;;3.67;3.47;;;19.40;99.90;;;;;;5030696;28;20222;-73
2023/08/06 09:19:45;;;;;;;3.13;2.93;;;19.70;99.90;;;;;;5029992;28;20186;-73
2023/08/06 09:22:13;;;;;;;3.05;2.85;;;20.10;99.90;;;;;;5030123;28;20222;-73
2023/08/06 09:24:40;;;;;;;3.13;2.93;;;20.60;99.90;;;;;;5029700;28;20557;-73
2023/08/06 09:27:14;;;;;;;3.33;3.00;;;21.00;99.90;;;;;;5030996;28;20175;-72
2023/08/06 09:29:46;;;;;;;3.08;2.88;;;21.20;99.90;;;;;;5029336;28;20190;-71
2023/08/06 09:32:12;;;;;;;3.05;2.85;;;21.40;99.90;;;;;;5029273;28;20647;-72
2023/08/06 09:34:42;;;;;;;3.17;2.97;;;21.50;99.90;;;;;;5028617;28;20286;-72
2023/08/06 09:37:11;;;;;;;3.13;2.92;;;21.70;99.90;;;;;;5029150;28;20175;-71
2023/08/06 09:39:40;;;;;;;3.80;3.37;;;20.70;99.90;;;;;;5030615;28;20557;-71
2023/08/06 09:42:06;;;;;;;3.60;3.40;;;19.60;99.90;;;;;;5030495;28;20196;-70
2023/08/06 09:44:32;;;;;;;3.47;3.27;;;18.80;99.90;;;;;;5030641;28;20186;-70
2023/08/06 09:47:00;;;;;;;2.73;2.60;;;18.00;99.90;;;;;;5030919;28;20180;-70
2023/08/06 09:49:27;;;;;;;3.10;3.00;;;17.40;99.90;;;;;;5030774;28;20179;-72
2023/08/06 09:51:58;;;;;;;2.67;2.47;;;16.80;99.90;;;;;;5030336;28;20601;-70
2023/08/06 09:54:26;;;;;;;2.93;2.73;;;16.60;99.90;;;;;;5030309;28;20211;-70
2023/08/06 09:56:52;;;;;;;2.73;2.63;;;16.30;99.90;;;;;;5030713;28;20203;-71
2023/08/06 09:59:19;;;;;;;2.50;2.40;;;16.20;99.90;;;;;;5030548;28;20672;-71
2023/08/06 10:01:45;;;;;;;3.60;3.40;;;16.10;99.90;;;;;;5030548;28;20558;-72
2023/08/06 10:04:15;;;;;;;2.83;2.63;;;16.10;99.90;;;;;;5030430;28;20186;-73
2023/08/06 10:06:43;;;;;;;3.20;2.90;;;15.90;99.90;;;;;;5030934;28;20187;-74
2023/08/06 10:09:09;;;;;;;2.67;2.57;;;15.70;99.90;;;;;;5034367;28;20182;-73
2023/08/06 10:11:36;;;;;;;2.93;2.73;;;15.60;99.90;;;;;;5034048;28;20206;-75
2023/08/06 10:14:21;;;;;;;2.70;2.50;;;15.50;99.90;;;;;;5033837;28;20211;-74
2023/08/06 10:16:48;;;;;;;2.83;2.60;;;15.30;99.90;;;;;;5034098;28;20236;-76
2023/08/06 10:19:16;;;;;;;2.70;2.60;;;15.20;99.90;;;;;;5033048;28;20217;-75
2023/08/06 10:22:02;;;;;;;2.87;2.77;;;15.10;99.90;;;;;;5033625;28;20207;-76
2023/08/06 10:24:27;;;;;;;3.07;2.90;;;15.00;99.90;;;;;;5033865;28;20183;-74
2023/08/06 10:26:58;;;;;;;3.50;3.30;;;14.90;99.90;;;;;;5033971;28;20194;-75
2023/08/06 10:29:37;;;;;;;3.47;3.27;;;14.90;99.90;;;;;;5033872;28;20234;-76
2023/08/06 10:32:05;;;;;;;4.17;3.87;;;14.90;99.90;;;;;;5033500;28;20210;-73
2023/08/06 10:35:00;;;;;;;3.60;3.30;;;14.70;99.90;;;;;;5033459;28;20203;-74
2023/08/06 10:37:36;;;;;;;3.20;3.10;;;14.70;99.90;;;;;;5032278;28;20645;-75
2023/08/06 10:40:02;;;;;;;3.13;2.97;;;14.60;99.90;;;;;;5031875;28;20230;-76
2023/08/06 10:42:29;;;;;;;3.47;3.27;;;14.70;99.90;;;;;;5033346;28;20701;-73
2023/08/06 10:45:15;;;;;;;4.10;3.80;;;14.60;99.90;;;;;;5033624;28;20657;-74
2023/08/06 10:47:41;;;;;;;4.50;4.20;;;14.50;99.90;;;;;;5032130;28;20179;-74
2023/08/06 10:50:16;;;;;;;5.70;4.60;;;14.40;99.90;;;;;;5033433;28;20184;-73
2023/08/06 10:52:43;;;;;;;5.47;4.30;;;14.40;99.90;;;;;;5033089;28;20199;-72
2023/08/06 10:55:09;;;;;;;5.10;4.70;;;14.30;99.90;;;;;;5033100;28;20253;-72
2023/08/06 10:57:35;;;;;;;4.90;4.50;;;14.30;99.90;;;;;;5033820;28;20241;-72
2023/08/06 11:00:01;;;;;;;5.33;4.30;;;14.40;99.90;;;;;;5033055;28;20645;-74
2023/08/06 11:02:27;;;;;;;5.23;4.73;;;14.40;99.90;;;;;;5032539;28;20203;-73
2023/08/06 11:04:53;;;;;;;5.40;4.90;;;14.40;99.90;;;;;;5031929;28;20203;-73
2023/08/06 11:07:19;;;;;;;5.30;4.80;;;14.50;99.90;;;;;;5033072;28;20629;-74
2023/08/06 11:09:44;;;;;;;5.57;5.00;;;14.50;99.90;;;;;;5033147;28;20186;-73
2023/08/06 11:12:10;;;;;;;5.70;5.17;;;14.50;99.90;;;;;;5031134;28;20341;-75
2023/08/06 11:14:38;;;;;;;5.47;4.83;;;14.50;99.90;;;;;;5119270;22;20235;-88
2023/08/06 11:17:05;;;;;;;9.47;5.07;;;14.50;99.90;;;;;;5013868;28;20599;-88
2023/08/06 11:19:31;;;;;;;7.10;4.70;;;14.50;99.90;;;;;;5014586;28;20200;-88
2023/08/06 11:21:57;;;;;;;5.07;4.67;;;14.60;99.90;;;;;;5030206;28;20278;-87
2023/08/06 11:24:24;;;;;;;4.83;4.43;;;14.60;99.90;;;;;;5014003;28;20642;-89
2023/08/06 11:26:50;;;;;;;7.67;4.60;;;14.60;99.90;;;;;;5013818;28;20571;-89
2023/08/06 11:29:16;;;;;;;5.33;4.90;;;14.80;99.90;;;;;;5013716;28;20200;-89
2023/08/06 11:31:41;;;;;;;7.73;5.23;;;15.00;99.90;;;;;;5013554;28;20176;-89
2023/08/06 11:34:07;;;;;;;6.30;5.67;;;15.10;99.90;;;;;;5015133;28;20295;-89
2023/08/06 11:36:36;;;;;;;5.17;4.77;;;15.10;99.90;;;;;;5013202;28;20179;-89
2023/08/06 11:39:05;;;;;;;6.70;5.43;;;15.20;99.90;;;;;;5012474;28;20224;-88
2023/08/06 11:41:31;;;;;;;5.43;5.03;;;15.10;99.90;;;;;;5013288;28;20255;-89
2023/08/06 11:43:57;;;;;;;7.17;4.83;;;15.20;99.90;;;;;;5012034;28;20529;-88
2023/08/06 11:46:24;;;;;;;7.60;4.93;;;15.20;99.90;;;;;;5014575;28;20176;-89
2023/08/06 11:48:56;;;;;;;7.87;5.37;;;15.20;99.90;;;;;;5018710;28;20196;-89
2023/08/06 11:51:24;;;;;;;4.57;4.20;;;15.10;99.90;;;;;;5013543;28;20207;-89
2023/08/06 11:53:50;;;;;;;4.73;4.33;;;15.40;99.90;;;;;;5013040;28;20211;-88
2023/08/06 11:56:16;;;;;;;4.50;4.13;;;15.40;99.90;;;;;;5014108;28;20168;-88
2023/08/06 11:58:42;;;;;;;7.00;4.27;;;15.60;99.90;;;;;;5014123;28;20231;-88
2023/08/06 12:01:08;;;;;;;3.90;3.60;;;15.50;99.90;;;;;;5012840;28;20725;-87
2023/08/06 12:03:42;;;;;;;4.47;4.17;;;15.50;99.90;;;;;;5012540;28;20180;-88
2023/08/06 12:06:08;;;;;;;6.30;4.17;;;15.70;99.90;;;;;;5013362;28;20195;-89
2023/08/06 12:08:33;;;;;;;5.63;3.80;;;15.80;99.90;;;;;;4996406;28;20204;-89
2023/08/06 12:10:59;;;;;;;4.17;3.87;;;15.90;99.90;;;;;;5013587;28;20336;-89
2023/08/06 12:13:25;;;;;;;6.67;4.07;;;16.00;99.90;;;;;;5013183;28;20591;-89
2023/08/06 12:15:53;;;;;;;4.53;3.70;;;16.10;99.90;;;;;;5012452;28;20283;-89
2023/08/06 12:18:19;;;;;;;4.33;3.90;;;16.20;99.90;;;;;;5011270;28;20200;-88
2023/08/06 12:20:44;;;;;;;4.93;3.40;;;16.40;99.90;;;;;;5012882;28;20528;-88
2023/08/06 12:23:10;;;;;;;3.70;3.40;;;16.40;99.90;;;;;;5012353;28;20270;-88
2023/08/06 12:25:36;;;;;;;4.13;3.73;;;16.40;99.90;;;;;;5012681;28;20191;-89
2023/08/06 12:28:01;;;;;;;3.83;3.53;;;16.40;99.90;;;;;;5013149;28;20200;-88
2023/08/06 12:30:27;;;;;;;3.47;3.23;;;16.20;99.90;;;;;;5014286;28;20183;-88
2023/08/06 12:32:52;;;;;;;4.00;3.60;;;16.20;99.90;;;;;;5012643;28;20179;-88
2023/08/06 12:35:19;;;;;;;4.23;3.53;;;16.30;99.90;;;;;;5013880;28;20214;-89
2023/08/06 12:37:45;;;;;;;4.10;3.80;;;16.30;99.90;;;;;;5014928;28;20176;-88
2023/08/06 12:40:11;;;;;;;5.63;3.83;;;16.30;99.90;;;;;;5015135;28;20183;-87
2023/08/06 12:42:36;;;;;;;4.17;3.63;;;16.20;99.90;;;;;;5015807;28;20578;-88
2023/08/06 12:45:02;;;;;;;4.20;3.80;;;16.20;99.90;;;;;;5016621;28;20558;-87